Kezdőlap
METAR-TAF:

METAR-TAF

Repülőterek :

Phoenix Goodyear Airport

Goodyear, Arizona, Amerikai Egyesült Államok

földrajzi szélesség: 33-25N, földrajzi hosszúság: 112-23W, magasság: 295 m

Jelenlegi meteorológiai megfigyelések

A jelentés 1 órával és 40 perccel ezelõtt készült, 03:47 UTC
Nyugat-délnyugati szél 9 kt
Hőmérséklet 31°C
Páratartalom 15%
Légköri nyomás 1008 hPa
Látótávolság: 16.1 km
Derült ég

METAR: KGYR 190347Z 25009KT 10SM SKC 31/01 A2978 RMK LAST

Idő: 22:27 (05:27 UTC)


TAF: hiányzik

Meteorológiai megfigyelések és előrejelzések több, mint 4000 repülőtéren (METAR és TAF jelentéseket).

A térképen piros és sárga pontok jelzik az elérhető meteorológiai állomásokat.

Mozgassa az egeret a pont fölött, hogy megjelenjen az állomás neve.

Azután kattintson az időjárási megfigyelések és előrejelzések megtekintéséhez.

A térkép megváltoztatása: kattintson a fekete keresztel jelölt zöld gombra ráközelítéshez, a vonallal jelölt zöld gombra távolításhoz, vagy a zöld nyilakra a szomszédos térképek eléréséhez.


METAR-TAF: